MSC Vandya — 3FDW4 — position and weather

sailwx.info

Track history (hours):
 
Tides and Currents Weather Stations Pressure Air Temp Water Temp Dewpoint Dewpoint Depression Visibility Wind Speed Wind Dir Waves Ship Positions

MSC Vandya

Last reported at 2017-Dec-15 10:25 UTC. Time now 2017-Dec-15 15:51 UTC.
Position N 41°18' E 140°13'.

Length 365 m; draft 11.3 m.

Type: Ship (hazmat cat A). MMSI: 373005000.

Date/timePositionNaut miles runAvg speedWind from/ knotsBaromVisibWave heightAir tempDewpointWater temp
2017-Dec-15 10:25N 41°18' E 140°13'613.3
2017-Dec-15 09:57N 41°21' E 140°20'613.2
2017-Dec-15 09:30N 41°25' E 140°26'612.9
2017-Dec-15 09:00N 41°28' E 140°34'713.6
2017-Dec-15 08:30N 41°32' E 140°41'714.0
2017-Dec-15 08:01N 41°36' E 140°48'713.7
2017-Dec-15 07:31N 41°37' E 140°57'713.7
2017-Dec-15 07:00N 41°37' E 141°06'714.3
2017-Dec-15 06:30N 41°37' E 141°16'714.4
2017-Dec-15 06:00N 41°38' E 141°26'713.5
2017-Dec-15 05:30N 41°38' E 141°35'713.5
2017-Dec-15 05:01N 41°38' E 141°44'  
Track history (hours):
 
Tides and Currents Weather Stations Pressure Air Temp Water Temp Dewpoint Dewpoint Depression Visibility Wind Speed Wind Dir Waves Ship Positions

MSC Vandya

Last reported at 2017-Dec-15 10:25 UTC. Time now 2017-Dec-15 15:51 UTC.
Position N 41°18' E 140°13'.

Length 365 m; draft 11.3 m.

Type: Ship (hazmat cat A). MMSI: 373005000.

Date/timePositionNaut miles runAvg speedWind from/ knotsBaromVisibWave heightAir tempDewpointWater temp
2017-Dec-15 10:25N 41°18' E 140°13'613.3
2017-Dec-15 09:57N 41°21' E 140°20'613.2
2017-Dec-15 09:30N 41°25' E 140°26'612.9
2017-Dec-15 09:00N 41°28' E 140°34'713.6
2017-Dec-15 08:30N 41°32' E 140°41'714.0
2017-Dec-15 08:01N 41°36' E 140°48'713.7
2017-Dec-15 07:31N 41°37' E 140°57'713.7
2017-Dec-15 07:00N 41°37' E 141°06'714.3
2017-Dec-15 06:30N 41°37' E 141°16'714.4
2017-Dec-15 06:00N 41°38' E 141°26'713.5
2017-Dec-15 05:30N 41°38' E 141°35'713.5
2017-Dec-15 05:01N 41°38' E 141°44'  

Dump ship's entire track history